Map

Track Data

SID SEASON NUMBER BASIN SUBBASIN NAME ISO_TIME NATURE LAT LON WMO_WIND WMO_PRES WMO_AGENCY TRACK_TYPE DIST2LAND LANDFALL IFLAG USA_AGENCY USA_ATCF_ID USA_LAT USA_LON USA_RECORD USA_STATUS USA_WIND USA_PRES USA_SSHS USA_R34_NE USA_R34_SE USA_R34_SW USA_R34_NW USA_R50_NE USA_R50_SE USA_R50_SW USA_R50_NW USA_R64_NE USA_R64_SE USA_R64_SW USA_R64_NW USA_POCI USA_ROCI USA_RMW USA_EYE TOKYO_LAT TOKYO_LON TOKYO_GRADE TOKYO_WIND TOKYO_PRES TOKYO_R50_DIR TOKYO_R50_LONG TOKYO_R50_SHORT TOKYO_R30_DIR TOKYO_R30_LONG TOKYO_R30_SHORT TOKYO_LAND CMA_LAT CMA_LON CMA_CAT CMA_WIND CMA_PRES HKO_LAT HKO_LON HKO_CAT HKO_WIND HKO_PRES NEWDELHI_LAT NEWDELHI_LON NEWDELHI_GRADE NEWDELHI_WIND NEWDELHI_PRES NEWDELHI_CI NEWDELHI_DP NEWDELHI_POCI REUNION_LAT REUNION_LON REUNION_TYPE REUNION_WIND REUNION_PRES REUNION_TNUM REUNION_CI REUNION_RMW REUNION_R34_NE REUNION_R34_SE REUNION_R34_SW REUNION_R34_NW REUNION_R50_NE REUNION_R50_SE REUNION_R50_SW REUNION_R50_NW REUNION_R64_NE REUNION_R64_SE REUNION_R64_SW REUNION_R64_NW BOM_LAT BOM_LON BOM_TYPE BOM_WIND BOM_PRES BOM_TNUM BOM_CI BOM_RMW BOM_R34_NE BOM_R34_SE BOM_R34_SW BOM_R34_NW BOM_R50_NE BOM_R50_SE BOM_R50_SW BOM_R50_NW BOM_R64_NE BOM_R64_SE BOM_R64_SW BOM_R64_NW BOM_ROCI BOM_POCI BOM_EYE BOM_POS_METHOD BOM_PRES_METHOD NADI_LAT NADI_LON NADI_CAT NADI_WIND NADI_PRES WELLINGTON_LAT WELLINGTON_LON WELLINGTON_WIND WELLINGTON_PRES DS824_LAT DS824_LON DS824_STAGE DS824_WIND DS824_PRES TD9636_LAT TD9636_LON TD9636_STAGE TD9636_WIND TD9636_PRES TD9635_LAT TD9635_LON TD9635_WIND TD9635_PRES TD9635_ROCI NEUMANN_LAT NEUMANN_LON NEUMANN_CLASS NEUMANN_WIND NEUMANN_PRES MLC_LAT MLC_LON MLC_CLASS MLC_WIND MLC_PRES USA_GUST BOM_GUST BOM_GUST_PER REUNION_GUST REUNION_GUST_PER USA_SEAHGT USA_SEARAD_NE USA_SEARAD_SE USA_SEARAD_SW USA_SEARAD_NW STORM_SPEED STORM_DIR
1874240N13326 1874 14 NA NA NOT_NAMED 1874-08-27 12:00:00 TS 13.4000 -33.6000 spur-merge 1743 1743 _____________O -1 13.4000 -33.6000 TD 30 10 270
1874240N13326 1874 14 NA NA NOT_NAMED 1874-08-27 15:00:00 TS 13.4002 -34.1000 spur-merge 1797 1797 _____________P -1 13.4002 -34.1000 TD 32 10 270
1874240N13326 1874 14 NA NA NOT_NAMED 1874-08-27 18:00:00 TS 13.4000 -34.6000 spur-merge 1850 1850 _____________O -1 13.4000 -34.6000 TS 35 10 270
1874240N13326 1874 14 NA NA NOT_NAMED 1874-08-27 21:00:00 TS 13.3999 -35.1000 spur-merge 1898 1884 _____________P -1 13.3999 -35.1000 TS 37 10 270
1874240N13326 1874 14 NA NA NOT_NAMED 1874-08-28 00:00:00 TS 13.4000 -35.6000 spur-merge 1884 1871 _____________O -1 13.4000 -35.6000 TS 40 10 270
1874240N13326 1874 14 NA NA NOT_NAMED 1874-08-28 03:00:00 TS 13.3999 -36.1000 spur-merge 1871 1860 _____________P -1 13.3999 -36.1000 TS 42 10 270
1874240N13326 1874 14 NA NA NOT_NAMED 1874-08-28 06:00:00 TS 13.4000 -36.6000 spur-merge 1860 1850 _____________O -1 13.4000 -36.6000 TS 45 10 270
1874240N13326 1874 14 NA NA NOT_NAMED 1874-08-28 09:00:00 TS 13.3924 -37.0925 spur-merge 1850 1817 _____________P -1 13.3924 -37.0925 TS 47 10 270
1874240N13326 1874 14 NA NA NOT_NAMED 1874-08-28 12:00:00 TS 13.4000 -37.6000 spur-merge 1817 1772 _____________O -1 13.4000 -37.6000 TS 50 10 273
1874240N13326 1874 14 NA NA NOT_NAMED 1874-08-28 15:00:00 TS 13.4500 -38.1499 spur-merge 1772 1725 _____________P -1 13.4500 -38.1499 TS 50 11 275
1874240N13326 1874 14 NA NA NOT_NAMED 1874-08-28 18:00:00 TS 13.5000 -38.7000 spur-merge 1725 1681 _____________O -1 13.5000 -38.7000 TS 50 10 273
1874240N13326 1874 14 NA NA NOT_NAMED 1874-08-28 21:00:00 TS 13.4998 -39.2001 spur-merge 1681 1638 _____________P -1 13.4998 -39.2001 TS 50 10 270
1874240N13326 1874 14 NA NA NOT_NAMED 1874-08-29 00:00:00 TS 13.5000 -39.7000 spur-merge 1638 1596 _____________O -1 13.5000 -39.7000 TS 50 10 272
1874240N13326 1874 14 NA NA NOT_NAMED 1874-08-29 03:00:00 TS 13.5350 -40.2500 spur-merge 1587 1553 _____________P -1 13.5350 -40.2500 TS 50 11 275
1874240N13326 1874 14 NA NA NOT_NAMED 1874-08-29 06:00:00 TS 13.6000 -40.8000 spur-merge 1553 1521 _____________O -1 13.6000 -40.8000 TS 50 10 279
1874240N13326 1874 14 NA NA NOT_NAMED 1874-08-29 09:00:00 TS 13.6924 -41.3075 spur-merge 1521 1489 _____________P -1 13.6924 -41.3075 TS 55 10 282
1874240N13326 1874 14 NA NA NOT_NAMED 1874-08-29 12:00:00 TS 13.8000 -41.8000 spur-merge 1489 1460 _____________O -1 13.8000 -41.8000 TS 60 10 283
1874240N13326 1874 14 NA NA NOT_NAMED 1874-08-29 15:00:00 TS 13.9074 -42.3000 spur-merge 1460 1431 _____________P -1 13.9074 -42.3000 TS 60 10 282
1874240N13326 1874 14 NA NA NOT_NAMED 1874-08-29 18:00:00 TS 14.0000 -42.8000 spur-merge 1431 1396 _____________O -1 14.0000 -42.8000 TS 60 10 278
1874240N13326 1874 14 NA NA NOT_NAMED 1874-08-29 21:00:00 TS 14.0423 -43.2927 spur-merge 1396 1371 _____________P -1 14.0423 -43.2927 TS 60 10 276
1874240N13326 1874 14 NA NA NOT_NAMED 1874-08-30 00:00:00 TS 14.1000 -43.8000 spur-merge 1371 1348 _____________O -1 14.1000 -43.8000 TS 60 10 281
1874240N13326 1874 14 NA NA NOT_NAMED 1874-08-30 03:00:00 TS 14.2425 -44.3499 spur-merge 1348 1331 _____________P -1 14.2425 -44.3499 TS 60 11 286
1874240N13326 1874 14 NA NA NOT_NAMED 1874-08-30 06:00:00 TS 14.4000 -44.9000 spur-merge 1331 1306 _____________O -1 14.4000 -44.9000 TS 60 11 284
1874240N13326 1874 14 NA NA NOT_NAMED 1874-08-30 09:00:00 TS 14.4998 -45.4077 spur-merge 1306 1283 _____________P -1 14.4998 -45.4077 TS 62 10 282
1874240N13326 1874 14 NA NA NOT_NAMED 1874-08-30 12:00:00 TS 14.6000 -45.9000 spur-merge 1283 1262 _____________O -1 14.6000 -45.9000 HU 65 10 285
1874240N13326 1874 14 NA NA NOT_NAMED 1874-08-30 15:00:00 TS 14.7499 -46.4000 spur-merge 1262 1252 _____________P -1 14.7499 -46.4000 HU 65 10 287
1874240N13326 1874 14 NA NA NOT_NAMED 1874-08-30 18:00:00 TS 14.9000 -46.9000 spur-merge 1252 1236 _____________O -1 14.9000 -46.9000 HU 65 10 284
1874240N13326 1874 14 NA NA NOT_NAMED 1874-08-30 21:00:00 TS 14.9922 -47.3778 spur-merge 1236 1221 _____________P -1 14.9922 -47.3778 HU 65 10 282
1874240N13326 1874 14 NA NA NOT_NAMED 1874-08-31 00:00:00 TS 15.1000 -47.9000 spur-merge 1221 1208 _____________O -1 15.1000 -47.9000 HU 65 11 284
1874240N13326 1874 14 NA NA NOT_NAMED 1874-08-31 03:00:00 TS 15.2775 -48.5275 spur-merge 1214 1200 _____________P -1 15.2775 -48.5275 HU 65 13 288
1874240N13326 1874 14 NA NA NOT_NAMED 1874-08-31 06:00:00 TS 15.5000 -49.2000 spur-merge 1205 1196 _____________O -1 15.5000 -49.2000 HU 65 14 290
1874240N13326 1874 14 NA NA NOT_NAMED 1874-08-31 09:00:00 TS 15.7423 -49.8501 spur-merge 1193 1193 _____________P -1 15.7423 -49.8501 HU 67 13 292
1874240N13326 1874 14 NA NA NOT_NAMED 1874-08-31 12:00:00 TS 16.0000 -50.5000 spur-merge 1201 1197 _____________O -1 16.0000 -50.5000 HU 70 14 292
1874240N13326 1874 14 NA NA NOT_NAMED 1874-08-31 15:00:00 TS 16.2574 -51.1576 spur-merge 1209 1187 _____________P -1 16.2574 -51.1576 HU 70 13 292
1874240N13326 1874 14 NA NA NOT_NAMED 1874-08-31 18:00:00 TS 16.5000 -51.8000 spur-merge 1187 1146 _____________O -1 16.5000 -51.8000 HU 70 13 290
1874240N13326 1874 14 NA NA NOT_NAMED 1874-08-31 21:00:00 TS 16.7000 -52.4377 spur-merge 1146 1108 _____________P -1 16.7000 -52.4377 HU 70 12 289
1874240N13326 1874 14 NA NA NOT_NAMED 1874-09-01 00:00:00 TS 16.9000 -53.0000 spur-merge 1108 1089 _____________O -1 16.9000 -53.0000 HU 70 11 295
1874240N13326 1874 14 NA NA NOT_NAMED 1874-09-01 03:00:00 TS 17.1498 -53.4376 spur-merge 1089 1079 _____________P -1 17.1498 -53.4376 HU 70 9 303
1874240N13326 1874 14 NA NA NOT_NAMED 1874-09-01 06:00:00 TS 17.4000 -53.8000 spur-merge 1079 1064 _____________O -1 17.4000 -53.8000 HU 70 8 304
1874240N13326 1874 14 NA NA NOT_NAMED 1874-09-01 09:00:00 TS 17.5999 -54.1502 spur-merge 1064 1058 _____________P -1 17.5999 -54.1502 HU 72 8 301
1874240N13326 1874 14 NA NA NOT_NAMED 1874-09-01 12:00:00 TS 17.8000 -54.5000 spur-merge 1059 1048 _____________O -1 17.8000 -54.5000 HU 75 8 302
1874240N13326 1874 14 NA NA NOT_NAMED 1874-09-01 15:00:00 TS 18.0425 -54.9000 spur-merge 1048 1043 _____________P -1 18.0425 -54.9000 HU 75 9 303
1874240N13326 1874 14 NA NA NOT_NAMED 1874-09-01 18:00:00 TS 18.3000 -55.3000 spur-merge 1048 1039 _____________O -1 18.3000 -55.3000 HU 75 9 302
1874240N13326 1874 14 NA NA NOT_NAMED 1874-09-01 21:00:00 TS 18.4974 -55.6654 spur-merge 1042 1012 _____________P -1 18.4974 -55.6654 HU 75 8 307
1874240N13326 1874 14 NA NA NOT_NAMED 1874-09-02 00:00:00 TS 18.8000 -56.0000 spur-merge 1012 982 _____________O -1 18.8000 -56.0000 HU 75 10 324
1874240N13326 1874 14 NA NA NOT_NAMED 1874-09-02 03:00:00 TS 19.3474 -56.3075 spur-merge 983 960 _____________P -1 19.3301 -56.3068 HU 77 13 335
1874240N13326 1874 14 NA NA NOT_NAMED 1874-09-02 06:00:00 TS 20.0000 -56.6000 spur-merge 961 _____________O -1 20.0000 -56.6000 HU 80 14 337

About IBTrACS Database

This database is a web-friendly format of International Best Track Archive for Climate Stewardship (IBTrACS), a global best track data archive curated by NOAA dating back to 1842.

Updated: 2021-12-08